createdAt,value
2023-01-11T00:00:09.734Z,-4.90
2023-01-11T00:03:01.021Z,-4.90
2023-01-11T00:05:46.645Z,-4.80
2023-01-11T00:08:32.295Z,-4.80
2023-01-11T00:11:18.360Z,-4.80
2023-01-11T00:14:04.427Z,-4.80
2023-01-11T00:16:49.901Z,-4.80
2023-01-11T00:19:35.517Z,-4.80
2023-01-11T00:22:21.143Z,-4.80
2023-01-11T00:25:07.049Z,-4.80
2023-01-11T00:27:53.949Z,-4.80
2023-01-11T00:30:39.594Z,-4.80
2023-01-11T00:33:25.236Z,-4.80
2023-01-11T00:36:11.040Z,-4.80
2023-01-11T00:38:56.865Z,-4.80
2023-01-11T00:41:42.273Z,-4.80
2023-01-11T00:44:30.123Z,-4.80
2023-01-11T00:47:17.432Z,-4.80
2023-01-11T00:50:04.163Z,-4.80
2023-01-11T00:52:49.614Z,-4.80
2023-01-11T00:55:35.793Z,-4.80
2023-01-11T00:58:24.513Z,-4.80
2023-01-11T01:01:09.946Z,-4.80
2023-01-11T01:03:55.394Z,-4.90
2023-01-11T01:06:41.380Z,-4.90
2023-01-11T01:09:27.323Z,-5.00
2023-01-11T01:12:12.971Z,-5.00
2023-01-11T01:14:58.395Z,-5.00
2023-01-11T01:17:44.880Z,-5.00
2023-01-11T01:20:30.643Z,-5.10
2023-01-11T01:23:16.308Z,-5.10
2023-01-11T01:26:06.714Z,-5.10
2023-01-11T01:28:52.206Z,-5.10
2023-01-11T01:31:38.004Z,-5.10
2023-01-11T01:34:23.839Z,-5.10
2023-01-11T01:37:11.538Z,-5.20
2023-01-11T01:39:57.199Z,-5.10
2023-01-11T01:42:42.598Z,-5.10
2023-01-11T01:45:28.483Z,-5.20
2023-01-11T01:48:22.200Z,-5.10
2023-01-11T01:51:11.186Z,-5.10
2023-01-11T01:54:04.084Z,-5.10
2023-01-11T01:56:56.679Z,-5.10
2023-01-11T01:59:42.382Z,-5.20
2023-01-11T02:02:28.372Z,-5.20
2023-01-11T02:05:18.373Z,-5.20
2023-01-11T02:08:11.895Z,-5.20
2023-01-11T02:10:57.739Z,-5.20
2023-01-11T02:13:43.491Z,-5.20
2023-01-11T02:16:30.057Z,-5.20
2023-01-11T02:19:47.331Z,-5.20
2023-01-11T02:23:12.650Z,-5.20
2023-01-11T02:26:51.777Z,-5.20
2023-01-11T02:30:03.567Z,-5.20
2023-01-11T02:33:04.346Z,-5.20
2023-01-11T02:36:28.283Z,-5.30
2023-01-11T02:39:28.721Z,-5.30
2023-01-11T02:42:46.027Z,-5.30
2023-01-11T02:46:45.700Z,-5.30
2023-01-11T02:50:06.087Z,-5.30
2023-01-11T02:53:06.850Z,-5.30
2023-01-11T02:55:59.338Z,-5.30
2023-01-11T02:58:49.139Z,-5.30
2023-01-11T03:01:50.214Z,-5.40
2023-01-11T03:04:37.591Z,-5.40
2023-01-11T03:08:10.213Z,-5.30
2023-01-11T03:11:48.202Z,-5.40
2023-01-11T03:14:59.237Z,-5.40
2023-01-11T03:18:19.214Z,-5.40
2023-01-11T03:22:07.164Z,-5.30
2023-01-11T03:25:11.919Z,-5.40
2023-01-11T03:28:25.947Z,-5.40
2023-01-11T03:31:38.772Z,-5.40
2023-01-11T03:35:18.402Z,-5.40
2023-01-11T03:38:35.268Z,-5.50
2023-01-11T03:41:27.747Z,-5.50
2023-01-11T03:44:15.129Z,-5.50
2023-01-11T03:47:10.476Z,-5.50
2023-01-11T03:50:04.938Z,-5.60
2023-01-11T03:52:51.624Z,-5.60
2023-01-11T03:56:00.000Z,-5.60
2023-01-11T03:58:49.060Z,-5.60
2023-01-11T04:01:34.794Z,-5.70
2023-01-11T04:04:29.664Z,-5.70
2023-01-11T04:07:15.980Z,-5.70
2023-01-11T04:10:01.913Z,-5.70
2023-01-11T04:12:48.438Z,-5.80
2023-01-11T04:15:34.062Z,-5.80
2023-01-11T04:18:19.965Z,-5.80
2023-01-11T04:21:25.415Z,-5.80
2023-01-11T04:24:11.652Z,-5.90
2023-01-11T04:26:56.962Z,-5.90
2023-01-11T04:29:42.674Z,-5.90
2023-01-11T04:32:28.221Z,-5.90
2023-01-11T04:35:13.801Z,-6.00
2023-01-11T04:37:59.405Z,-6.00
2023-01-11T04:40:45.178Z,-6.00
2023-01-11T04:43:30.830Z,-6.00
2023-01-11T04:46:16.286Z,-6.10
2023-01-11T04:49:02.133Z,-6.10
2023-01-11T04:51:47.789Z,-6.10
2023-01-11T04:54:33.154Z,-6.00
2023-01-11T04:57:18.869Z,-6.10
2023-01-11T05:00:06.091Z,-6.00
2023-01-11T05:02:51.825Z,-6.10
2023-01-11T05:05:37.201Z,-6.10
2023-01-11T05:08:24.430Z,-6.10
2023-01-11T05:11:10.337Z,-6.10
2023-01-11T05:13:56.150Z,-6.10
2023-01-11T05:16:42.036Z,-6.10
2023-01-11T05:19:27.948Z,-6.20
2023-01-11T05:22:13.541Z,-6.10
2023-01-11T05:24:58.890Z,-6.10
2023-01-11T05:27:44.493Z,-6.10
2023-01-11T05:30:30.191Z,-6.10
2023-01-11T05:33:15.627Z,-6.10
2023-01-11T05:36:04.778Z,-6.10
2023-01-11T05:38:53.157Z,-6.10
2023-01-11T05:41:39.513Z,-6.10
2023-01-11T05:44:25.203Z,-6.10
2023-01-11T05:47:10.715Z,-6.10
2023-01-11T05:49:56.211Z,-6.10
2023-01-11T05:52:41.900Z,-6.10
2023-01-11T05:55:27.342Z,-6.10
2023-01-11T05:58:12.712Z,-6.10
2023-01-11T06:00:58.297Z,-6.10
2023-01-11T06:03:44.609Z,-6.10
2023-01-11T06:06:30.449Z,-6.00
2023-01-11T06:09:15.947Z,-6.10
2023-01-11T06:12:02.075Z,-6.10
2023-01-11T06:14:47.774Z,-6.10
2023-01-11T06:17:33.248Z,-6.20
2023-01-11T06:20:19.173Z,-6.20
2023-01-11T06:23:04.858Z,-6.20
2023-01-11T06:25:50.984Z,-6.20
2023-01-11T06:28:37.753Z,-6.20
2023-01-11T06:31:23.103Z,-6.40
2023-01-11T06:34:08.916Z,-6.40
2023-01-11T06:36:55.796Z,-6.40
2023-01-11T06:39:41.358Z,-6.40
2023-01-11T06:42:26.882Z,-6.40
2023-01-11T06:45:12.420Z,-6.30
2023-01-11T06:47:59.228Z,-6.30
2023-01-11T06:50:54.995Z,-6.30
2023-01-11T06:53:42.804Z,-6.30
2023-01-11T06:56:28.440Z,-6.20
2023-01-11T06:59:13.790Z,-6.20
2023-01-11T07:01:59.519Z,-6.20
2023-01-11T07:04:44.870Z,-6.20
2023-01-11T07:07:30.464Z,-6.10
2023-01-11T07:10:16.940Z,-6.00
2023-01-11T07:13:02.979Z,-6.00
2023-01-11T07:15:50.286Z,-6.00
2023-01-11T07:18:36.207Z,-5.90
2023-01-11T07:21:22.097Z,-5.80
2023-01-11T07:24:07.909Z,-5.80
2023-01-11T07:26:53.312Z,-5.80
2023-01-11T07:29:39.235Z,-5.70
2023-01-11T07:32:24.783Z,-5.70
2023-01-11T07:35:10.421Z,-5.60
2023-01-11T07:37:56.433Z,-5.60
2023-01-11T07:40:42.289Z,-5.60
2023-01-11T07:43:27.705Z,-5.60
2023-01-11T07:46:13.345Z,-5.60
2023-01-11T07:48:59.281Z,-5.60
2023-01-11T07:51:44.896Z,-5.60
2023-01-11T07:54:30.301Z,-5.50
2023-01-11T07:57:15.775Z,-5.40
2023-01-11T08:00:01.366Z,-5.50
2023-01-11T08:02:51.534Z,-5.50
2023-01-11T08:05:37.546Z,-5.50
2023-01-11T08:08:25.769Z,-5.50
2023-01-11T08:11:11.940Z,-5.50
2023-01-11T08:13:57.595Z,-5.60
2023-01-11T08:16:43.188Z,-5.60
2023-01-11T08:19:28.969Z,-5.60
2023-01-11T08:22:15.070Z,-5.60
2023-01-11T08:25:00.395Z,-5.50
2023-01-11T08:27:52.955Z,-5.50
2023-01-11T08:30:38.898Z,-5.50
2023-01-11T08:33:24.416Z,-5.40
2023-01-11T08:36:12.671Z,-5.30
2023-01-11T08:38:58.605Z,-5.30
2023-01-11T08:41:45.026Z,-5.30
2023-01-11T08:44:34.722Z,-5.30
2023-01-11T08:47:20.585Z,-5.30
2023-01-11T08:50:06.647Z,-5.30
2023-01-11T08:52:52.252Z,-5.30
2023-01-11T08:55:37.746Z,-5.40
2023-01-11T08:58:23.239Z,-5.40
2023-01-11T09:01:11.592Z,-5.30
2023-01-11T09:03:57.038Z,-5.30
2023-01-11T09:06:42.646Z,-5.30
2023-01-11T09:09:27.960Z,-5.30
2023-01-11T09:12:13.474Z,-5.20
2023-01-11T09:14:59.212Z,-5.10
2023-01-11T09:17:47.813Z,-5.10
2023-01-11T09:20:33.924Z,-5.10
2023-01-11T09:23:19.996Z,-5.20
2023-01-11T09:26:05.708Z,-5.10
2023-01-11T09:28:51.561Z,-5.10
2023-01-11T09:31:37.366Z,-5.10
2023-01-11T09:34:23.248Z,-5.00
2023-01-11T09:37:08.942Z,-5.00
2023-01-11T09:39:54.557Z,-5.00
2023-01-11T09:42:40.947Z,-4.90
2023-01-11T09:45:27.844Z,-4.90
2023-01-11T09:48:32.491Z,-4.90
2023-01-11T09:51:18.340Z,-5.00
2023-01-11T09:54:04.017Z,-5.00
2023-01-11T09:57:23.742Z,-5.00
2023-01-11T10:00:23.385Z,-5.10
2023-01-11T10:03:50.387Z,-5.10
2023-01-11T10:07:18.848Z,-5.10
2023-01-11T10:18:30.451Z,-5.00
2023-01-11T10:18:58.011Z,-4.90
2023-01-11T10:21:59.203Z,-4.80
2023-01-11T10:24:59.271Z,-4.70
2023-01-11T10:28:02.836Z,-4.70
2023-01-11T10:30:55.135Z,-4.70
2023-01-11T10:33:46.647Z,-4.70
2023-01-11T10:36:50.385Z,-4.50
2023-01-11T10:40:17.357Z,-4.30
2023-01-11T10:43:37.566Z,-4.30
2023-01-11T10:46:26.842Z,-4.70
2023-01-11T10:49:40.545Z,-4.90
2023-01-11T10:53:07.844Z,-4.90
2023-01-11T10:56:21.599Z,-5.00
2023-01-11T10:59:48.736Z,-5.10
2023-01-11T11:03:53.084Z,-5.10
2023-01-11T11:07:09.008Z,-5.10
2023-01-11T11:10:19.345Z,-5.10
2023-01-11T11:13:43.509Z,-5.00
2023-01-11T11:17:13.573Z,-5.00
2023-01-11T11:20:00.158Z,-4.80
2023-01-11T11:22:51.516Z,-4.80
2023-01-11T11:25:41.997Z,-4.80
2023-01-11T11:28:32.195Z,-4.70
2023-01-11T11:31:17.987Z,-4.50
2023-01-11T11:34:14.142Z,-4.50
2023-01-11T11:37:01.582Z,-4.50
2023-01-11T11:39:51.215Z,-4.60
2023-01-11T11:42:36.705Z,-4.60
2023-01-11T11:45:22.201Z,-4.60
2023-01-11T11:48:10.939Z,-4.60
2023-01-11T11:51:01.290Z,-4.50
2023-01-11T11:53:53.843Z,-4.50
2023-01-11T11:56:39.657Z,-4.40
2023-01-11T11:59:29.928Z,-4.40
2023-01-11T12:02:33.504Z,-4.40
2023-01-11T12:05:19.591Z,-4.50
2023-01-11T12:08:05.918Z,-4.50
2023-01-11T12:11:06.950Z,-4.40
2023-01-11T12:14:21.278Z,-4.40
2023-01-11T12:17:25.718Z,-4.40
2023-01-11T12:20:27.946Z,-4.30
2023-01-11T12:23:24.316Z,-4.20
2023-01-11T12:26:31.408Z,-4.10
2023-01-11T12:29:43.159Z,-4.10
2023-01-11T12:33:25.768Z,-4.10
2023-01-11T12:36:16.700Z,-4.00
2023-01-11T12:40:11.417Z,-4.10
2023-01-11T12:43:46.295Z,-4.00
2023-01-11T12:46:52.045Z,-4.00
2023-01-11T12:50:23.361Z,-4.10
2023-01-11T12:53:36.635Z,-4.10
2023-01-11T12:56:34.030Z,-4.20
2023-01-11T12:59:40.462Z,-4.30
2023-01-11T13:03:29.251Z,-4.30
2023-01-11T13:06:56.978Z,-4.40
2023-01-11T13:10:37.049Z,-4.50
2023-01-11T13:13:52.495Z,-4.50
2023-01-11T13:17:08.016Z,-4.60
2023-01-11T13:20:02.063Z,-4.70
2023-01-11T13:23:03.247Z,-4.70
2023-01-11T13:25:51.656Z,-4.70
2023-01-11T13:28:49.100Z,-4.70
2023-01-11T13:31:35.783Z,-4.70
2023-01-11T13:34:38.334Z,-4.70
2023-01-11T13:37:47.414Z,-4.80
2023-01-11T13:40:58.437Z,-4.90
2023-01-11T13:43:58.881Z,-5.00
2023-01-11T13:47:19.434Z,-5.00
2023-01-11T13:50:22.394Z,-5.10
2023-01-11T13:53:28.799Z,-5.20
2023-01-11T13:56:32.842Z,-5.20
2023-01-11T13:59:41.988Z,-5.30
2023-01-11T14:03:09.918Z,-5.50
2023-01-11T14:06:19.486Z,-5.50
2023-01-11T14:09:15.332Z,-5.60
2023-01-11T14:12:42.233Z,-5.60
2023-01-11T14:15:48.900Z,-5.70
2023-01-11T14:18:52.456Z,-5.80
2023-01-11T14:22:02.662Z,-5.90
2023-01-11T14:25:22.084Z,-5.90
2023-01-11T14:28:10.679Z,-6.00
2023-01-11T14:31:48.137Z,-6.00
2023-01-11T14:34:39.312Z,-6.10
2023-01-11T14:38:11.717Z,-6.10
2023-01-11T14:41:11.857Z,-6.10
2023-01-11T14:44:57.746Z,-6.20
2023-01-11T14:48:35.136Z,-6.20
2023-01-11T14:51:40.036Z,-6.30
2023-01-11T14:54:44.891Z,-6.30
2023-01-11T14:57:44.132Z,-6.40
2023-01-11T15:00:29.753Z,-6.40
2023-01-11T15:03:15.127Z,-6.40
2023-01-11T15:06:21.021Z,-6.40
2023-01-11T15:09:45.258Z,-6.40
2023-01-11T15:12:40.514Z,-6.40
2023-01-11T15:15:28.913Z,-6.50
2023-01-11T15:18:24.541Z,-6.50
2023-01-11T15:21:22.653Z,-6.50
2023-01-11T15:24:29.209Z,-6.60
2023-01-11T15:27:38.117Z,-6.60
2023-01-11T15:30:29.678Z,-6.60
2023-01-11T15:33:18.770Z,-6.60
2023-01-11T15:36:05.107Z,-6.60
2023-01-11T15:39:11.450Z,-6.60
2023-01-11T15:42:14.968Z,-6.60
2023-01-11T15:45:43.539Z,-6.60
2023-01-11T15:49:04.563Z,-6.70
2023-01-11T15:52:27.511Z,-6.60
2023-01-11T15:56:05.216Z,-6.60
2023-01-11T15:59:30.795Z,-6.60
2023-01-11T16:02:59.915Z,-6.50
2023-01-11T16:06:37.043Z,-6.50
2023-01-11T16:10:40.958Z,-6.50
2023-01-11T16:14:15.913Z,-6.50
2023-01-11T16:17:02.623Z,-6.40
2023-01-11T16:19:48.855Z,-6.40
2023-01-11T16:22:34.874Z,-6.50
2023-01-11T16:25:21.846Z,-6.40
2023-01-11T16:28:15.792Z,-6.40
2023-01-11T16:31:05.571Z,-6.40
2023-01-11T16:33:51.606Z,-6.40
2023-01-11T16:36:39.534Z,-6.40
2023-01-11T16:39:29.236Z,-6.40
2023-01-11T16:42:14.986Z,-6.40
2023-01-11T16:45:05.836Z,-6.40
2023-01-11T16:48:28.568Z,-6.30
2023-01-11T16:51:14.177Z,-6.30
2023-01-11T16:53:59.600Z,-6.30
2023-01-11T16:56:50.522Z,-6.30
2023-01-11T16:59:39.629Z,-6.30
2023-01-11T17:02:35.523Z,-6.20
2023-01-11T17:05:24.554Z,-6.20
2023-01-11T17:08:40.376Z,-6.20
2023-01-11T17:11:37.115Z,-6.20
2023-01-11T17:15:15.617Z,-6.10
2023-01-11T17:18:05.102Z,-6.10
2023-01-11T17:20:54.509Z,-6.10
2023-01-11T17:23:41.730Z,-6.00
2023-01-11T17:26:35.620Z,-6.10
2023-01-11T17:29:40.770Z,-6.00
2023-01-11T17:32:44.447Z,-6.00
2023-01-11T17:35:46.647Z,-6.00
2023-01-11T17:38:37.740Z,-5.90
2023-01-11T17:41:26.684Z,-6.00
2023-01-11T17:44:24.022Z,-5.90
2023-01-11T17:47:12.431Z,-5.90
2023-01-11T17:50:02.552Z,-5.90
2023-01-11T17:52:54.735Z,-5.90
2023-01-11T17:56:02.554Z,-5.90
2023-01-11T17:58:48.201Z,-5.90
2023-01-11T18:01:55.565Z,-5.90
2023-01-11T18:04:41.659Z,-5.80
2023-01-11T18:07:27.744Z,-5.80
2023-01-11T18:10:28.843Z,-5.90
2023-01-11T18:13:30.849Z,-5.90
2023-01-11T18:16:19.520Z,-5.90
2023-01-11T18:19:31.095Z,-5.90
2023-01-11T18:22:38.664Z,-6.00
2023-01-11T18:25:28.777Z,-6.00
2023-01-11T18:28:29.811Z,-6.00
2023-01-11T18:31:32.099Z,-6.10
2023-01-11T18:34:17.552Z,-6.10
2023-01-11T18:37:05.581Z,-6.10
2023-01-11T18:39:52.601Z,-6.20
2023-01-11T18:42:38.057Z,-6.30
2023-01-11T18:45:23.676Z,-6.30
2023-01-11T18:48:13.829Z,-6.30
2023-01-11T18:50:59.467Z,-6.30
2023-01-11T18:53:45.296Z,-6.40
2023-01-11T18:56:31.370Z,-6.50
2023-01-11T18:59:17.008Z,-6.50
2023-01-11T19:02:45.815Z,-6.50
2023-01-11T19:05:33.863Z,-6.50
2023-01-11T19:08:19.465Z,-6.50
2023-01-11T19:11:05.123Z,-6.60
2023-01-11T19:13:50.926Z,-6.60
2023-01-11T19:16:36.829Z,-6.60
2023-01-11T19:19:22.379Z,-6.70
2023-01-11T19:22:10.036Z,-6.70
2023-01-11T19:24:55.840Z,-6.70
2023-01-11T19:27:41.545Z,-6.70
2023-01-11T19:30:26.985Z,-6.80
2023-01-11T19:33:12.731Z,-6.80
2023-01-11T19:35:58.272Z,-6.80
2023-01-11T19:38:43.900Z,-6.80
2023-01-11T19:41:30.445Z,-6.90
2023-01-11T19:44:16.101Z,-6.90
2023-01-11T19:47:12.356Z,-6.90
2023-01-11T19:49:58.900Z,-6.90
2023-01-11T19:52:44.540Z,-6.90
2023-01-11T19:55:30.253Z,-6.80
2023-01-11T19:58:15.813Z,-6.70
2023-01-11T20:01:10.630Z,-6.60
2023-01-11T20:03:56.542Z,-6.60
2023-01-11T20:06:45.665Z,-6.50
2023-01-11T20:09:34.274Z,-6.50
2023-01-11T20:12:19.982Z,-6.40
2023-01-11T20:15:07.232Z,-6.40
2023-01-11T20:17:52.999Z,-6.40
2023-01-11T20:20:38.536Z,-6.30
2023-01-11T20:23:24.526Z,-6.30
2023-01-11T20:26:12.094Z,-6.20
2023-01-11T20:28:58.323Z,-6.10
2023-01-11T20:31:43.950Z,-6.10
2023-01-11T20:34:29.445Z,-6.00
2023-01-11T20:37:14.771Z,-6.00
2023-01-11T20:40:00.146Z,-6.00
2023-01-11T20:42:45.633Z,-5.90
2023-01-11T20:45:31.928Z,-5.90
2023-01-11T20:48:17.700Z,-5.90
2023-01-11T20:51:04.591Z,-6.00
2023-01-11T20:53:51.112Z,-6.00
2023-01-11T20:56:37.694Z,-5.90
2023-01-11T20:59:23.371Z,-5.90
2023-01-11T21:02:11.015Z,-5.90
2023-01-11T21:04:56.693Z,-5.80
2023-01-11T21:07:42.629Z,-5.80
2023-01-11T21:10:28.023Z,-5.90
2023-01-11T21:13:13.852Z,-5.90
2023-01-11T21:16:12.473Z,-5.90
2023-01-11T21:19:04.531Z,-6.00
2023-01-11T21:21:50.268Z,-6.00
2023-01-11T21:24:36.215Z,-6.00
2023-01-11T21:27:21.983Z,-6.10
2023-01-11T21:30:09.104Z,-6.10
2023-01-11T21:32:55.141Z,-6.10
2023-01-11T21:35:40.830Z,-6.20
2023-01-11T21:38:26.268Z,-6.20
2023-01-11T21:41:19.105Z,-6.20
2023-01-11T21:44:04.865Z,-6.30
2023-01-11T21:46:50.691Z,-6.30
2023-01-11T21:49:37.803Z,-6.30
2023-01-11T21:52:23.682Z,-6.40
2023-01-11T21:55:09.482Z,-6.40
2023-01-11T21:57:54.987Z,-6.40
2023-01-11T22:00:40.344Z,-6.40
2023-01-11T22:03:29.423Z,-6.50
2023-01-11T22:06:15.924Z,-6.50
2023-01-11T22:09:01.732Z,-6.50
2023-01-11T22:11:47.646Z,-6.50
2023-01-11T22:14:33.543Z,-6.50
2023-01-11T22:17:22.270Z,-6.50
2023-01-11T22:20:09.585Z,-6.60
2023-01-11T22:22:55.435Z,-6.60
2023-01-11T22:25:40.862Z,-6.60
2023-01-11T22:28:26.288Z,-6.60
2023-01-11T22:31:12.387Z,-6.60
2023-01-11T22:33:58.982Z,-6.60
2023-01-11T22:37:03.912Z,-6.70
2023-01-11T22:39:49.183Z,-6.70
2023-01-11T22:42:34.883Z,-6.70
2023-01-11T22:45:20.613Z,-6.70
2023-01-11T22:48:06.305Z,-6.70
2023-01-11T22:50:52.557Z,-6.70
2023-01-11T22:53:40.875Z,-6.70
2023-01-11T22:56:27.632Z,-6.70
2023-01-11T22:59:13.307Z,-6.80
2023-01-11T23:01:58.649Z,-6.80
2023-01-11T23:04:43.969Z,-6.80
2023-01-11T23:07:29.417Z,-6.80
2023-01-11T23:10:15.741Z,-6.80
2023-01-11T23:13:01.075Z,-6.80
2023-01-11T23:15:55.354Z,-6.80
2023-01-11T23:18:49.922Z,-6.90
2023-01-11T23:21:38.830Z,-6.90
2023-01-11T23:24:24.292Z,-6.90
2023-01-11T23:27:09.672Z,-6.90
2023-01-11T23:29:56.080Z,-7.00
2023-01-11T23:32:41.580Z,-7.00
2023-01-11T23:35:27.016Z,-7.00
